aviador You're here:

KTVR Decoded Metar

TALLULAH/VICKSBU in LA, USA
Report Time2017-12-15 13:53:00
UTC Time2017-12-15 14:11:32
Flight Rules vfr VFR
WindCalm
Visibility9999 m
Phenomena:N/A
Clouds:N/A
Expected CloudBase > 1,200 ft AGL from Temp-Dew spread
CeilingNone
Temp03°C (ISA -12)
Dew Point00°C (81% RH)
AAT1.0°C
QNH1024 hPa
Density Alt-1,640 ft
Elevation85 ft
Report Wrong Elevation
Raw Report
KTVR 151353Z AUTO 00000KT 10SM CLR 03/00 A3024 RMK AO2 SLP248
T00330000=

Extra information for KTVR:More info

Metar Taf Metar & Taf Last 4 Metars F.Rules Stats Wind Profile Meteogram Temp Stats Airport Information Weather charts Add Link Nearby VenuesMetar ALERT Operation Metar Decoded Social comments

AIRNAV info for KTVR